< < Back
Terminal Aerodrome Forecast


Current Version              Previous Versions:   1  2  3  4  5  6  7  8  9  

Terminal Aerodrome Forecast

702
FTUS44 KHUN 262346
TAFHSV
TAF
KHSV 262346Z 2700/2724 VRB03KT P6SM SCT060 SCT150
      TEMPO 2710/2712 4SM BR
     FM271400 22005KT P6SM SCT040 BKN080
     FM271700 22005KT P6SM VCTS SCT040CB BKN080
      TEMPO 2719/2723 4SM TSRA BKN035CB
     FM272300 34005KT P6SM SCT040 BKN150 BKN250=



Latest METAR

960
SAUS80 KWBC 271300 RRB
MTRHSV
METAR KHSV 271253Z 18006KT 10SM FEW100 SCT250 26/22 A3009 RMK AO2 SLP182
T02560217


USA.gov is the U.S. government's official web portal to all federal, state and local government web resources and services.